Time;durP1;ratioP1;P1;durP2;ratioP2;P2;SDS_P1;SDS_P2;PMS_P1;PMS_P2;Temp;Humidity;BMP_temperature;BMP_pressure;BME280_temperature;BME280_humidity;BME280_pressure;Samples;Min_cycle;Max_cycle;Signal;HPM_P1;HPM_P2
2022/04/12 00:01:15;;;;;;;1.47;1.00;;;;;;;7.31;70.29;98895.56;8166957;28;20300;-71
2022/04/12 00:05:16;;;;;;;1.70;0.80;;;;;;;7.23;71.04;98899.03;8174398;28;20051;-72
2022/04/12 00:09:31;;;;;;;1.07;0.80;;;;;;;7.18;71.85;98900.75;8163109;29;20143;-71
2022/04/12 00:13:32;;;;;;;2.15;0.80;;;;;;;7.08;72.46;98893.84;8186564;28;20472;-71
2022/04/12 00:21:55;;;;;;;0.87;0.73;;;;;;;7.01;73.43;98893.84;8187538;28;20648;-71
2022/04/12 00:25:57;;;;;;;1.23;0.90;;;;;;;6.89;73.53;98884.34;8185232;28;20062;-71
2022/04/12 00:29:58;;;;;;;0.73;0.73;;;;;;;6.84;74.64;98889.50;8189517;28;20059;-71
2022/04/12 00:34:00;;;;;;;1.65;1.35;;;;;;;6.83;74.89;98879.19;8168206;28;20070;-71
2022/04/12 00:38:13;;;;;;;0.97;0.73;;;;;;;6.82;75.29;98880.91;8181161;28;20058;-71
2022/04/12 00:42:14;;;;;;;1.83;0.70;;;;;;;6.77;75.44;98869.69;8203199;28;20043;-71
2022/04/12 00:46:16;;;;;;;1.37;0.80;;;;;;;6.80;74.96;98871.41;8201273;28;20074;-71
2022/04/12 00:50:17;;;;;;;1.23;0.70;;;;;;;6.81;74.83;98870.53;8202414;28;20356;-71
2022/04/12 00:54:20;;;;;;;1.70;1.00;;;;;;;6.79;74.77;98857.66;8187980;28;20043;-71
2022/04/12 00:58:23;;;;;;;3.10;1.00;;;;;;;6.84;72.45;98861.13;8201783;28;20708;-71
2022/04/12 01:02:24;;;;;;;2.40;1.20;;;;;;;6.97;70.62;98867.13;8170930;28;20073;-71
2022/04/12 01:06:26;;;;;;;1.50;0.80;;;;;;;7.05;70.41;98857.69;8203433;28;20410;-71
2022/04/12 01:10:28;;;;;;;1.97;0.90;;;;;;;7.11;70.20;98860.28;8202510;28;20047;-71
2022/04/12 01:14:30;;;;;;;1.80;0.90;;;;;;;7.25;67.46;98857.72;8206142;28;20062;-71
2022/04/12 01:18:31;;;;;;;1.10;0.80;;;;;;;7.33;66.70;98857.69;8194882;28;20079;-71
2022/04/12 01:22:35;;;;;;;2.30;0.90;;;;;;;7.36;66.48;98850.84;8197690;28;20089;-71
2022/04/12 01:26:37;;;;;;;1.20;1.02;;;;;;;7.38;66.07;98849.09;8183142;28;20487;-71
2022/04/12 01:30:39;;;;;;;2.10;1.30;;;;;;;7.41;66.30;98850.81;8197880;28;20089;-71
2022/04/12 01:34:41;;;;;;;1.67;0.80;;;;;;;7.34;68.62;98843.91;8198378;28;20063;-71
2022/04/12 01:38:42;;;;;;;1.17;0.97;;;;;;;7.25;68.18;98844.81;8200219;28;20058;-71
2022/04/12 01:42:44;;;;;;;1.57;1.10;;;;;;;7.23;68.66;98841.38;8187337;28;20073;-71
2022/04/12 01:46:45;;;;;;;1.95;1.00;;;;;;;7.08;69.76;98839.63;8194210;28;20284;-71
2022/04/12 01:50:48;;;;;;;2.67;1.00;;;;;;;6.97;71.18;98839.59;8204268;28;20146;-72
2022/04/12 01:54:50;;;;;;;2.40;1.15;;;;;;;6.84;71.77;98844.78;8182958;28;20055;-71
2022/04/12 01:58:51;;;;;;;1.53;0.90;;;;;;;6.72;72.52;98844.75;8201510;28;20081;-71
2022/04/12 02:02:53;;;;;;;1.67;1.00;;;;;;;6.65;73.36;98842.16;8199432;28;20117;-72
2022/04/12 02:06:54;;;;;;;3.90;0.70;;;;;;;6.54;73.85;98846.41;8211419;28;20069;-72
2022/04/12 02:10:56;;;;;;;1.93;1.00;;;;;;;6.45;74.93;98838.63;8176675;28;20405;-71
2022/04/12 02:14:59;;;;;;;1.83;0.80;;;;;;;6.36;75.14;98846.34;8208346;28;20592;-71
2022/04/12 02:19:00;;;;;;;1.57;0.90;;;;;;;6.27;75.81;98841.16;8205997;28;20055;-71
2022/04/12 02:23:02;;;;;;;1.77;1.27;;;;;;;6.14;76.74;98834.25;8211140;28;20051;-71
2022/04/12 02:27:04;;;;;;;2.37;1.27;;;;;;;6.06;77.06;98839.34;8211427;28;20053;-71
2022/04/12 02:31:05;;;;;;;1.30;0.93;;;;;;;6.06;77.72;98831.63;8168817;28;20043;-71
2022/04/12 02:35:08;;;;;;;1.05;0.82;;;;;;;5.99;78.09;98833.31;8208185;28;20581;-71
2022/04/12 02:39:10;;;;;;;1.00;0.80;;;;;;;5.88;78.36;98829.78;8183568;28;20066;-71
2022/04/12 02:43:11;;;;;;;1.80;0.93;;;;;;;5.94;78.59;98824.72;8209198;28;20129;-71
2022/04/12 02:47:13;;;;;;;3.20;1.10;;;;;;;5.94;78.93;98816.13;8186179;28;20477;-71
2022/04/12 02:51:14;;;;;;;2.47;0.90;;;;;;;5.90;78.76;98819.50;8206571;28;20498;-71
2022/04/12 02:55:15;;;;;;;2.70;1.20;;;;;;;5.90;78.40;98819.50;8186397;28;20042;-71
2022/04/12 02:59:17;;;;;;;0.80;0.70;;;;;;;5.90;77.91;98815.22;8209468;28;20070;-71
2022/04/12 03:03:18;;;;;;;2.00;1.00;;;;;;;5.86;78.18;98818.59;8186120;28;20054;-71
2022/04/12 03:07:20;;;;;;;2.00;1.13;;;;;;;5.82;78.23;98816.03;8204235;28;20061;-71
2022/04/12 03:11:21;;;;;;;2.07;1.03;;;;;;;5.74;78.71;98814.28;8204300;28;20042;-71
2022/04/12 03:15:22;;;;;;;1.07;0.90;;;;;;;5.73;78.71;98811.66;8178142;28;20134;-71
2022/04/12 03:19:24;;;;;;;2.90;1.00;;;;;;;5.67;79.21;98809.06;8187311;28;20069;-71
2022/04/12 03:23:25;;;;;;;1.77;1.30;;;;;;;5.70;79.32;98806.50;8201931;28;20059;-71
2022/04/12 03:27:28;;;;;;;1.03;0.80;;;;;;;5.67;78.81;98797.03;8189958;28;20458;-71
2022/04/12 03:31:29;;;;;;;1.90;0.90;;;;;;;5.64;79.27;98801.31;8192699;28;20079;-71
2022/04/12 03:35:31;;;;;;;1.10;0.80;;;;;;;5.55;79.51;98796.09;8206594;28;20059;-71
2022/04/12 03:39:32;;;;;;;3.23;1.00;;;;;;;5.55;79.48;98798.69;8204988;28;20150;-71
2022/04/12 03:43:33;;;;;;;2.63;1.00;;;;;;;5.52;79.86;98804.69;8201642;28;20736;-71
2022/04/12 03:47:35;;;;;;;1.73;0.90;;;;;;;5.45;80.14;98806.38;8182062;28;20060;-71
2022/04/12 03:51:37;;;;;;;1.40;1.07;;;;;;;5.48;80.29;98805.50;8182071;28;20081;-71
2022/04/12 03:55:39;;;;;;;0.90;0.90;;;;;;;5.45;80.77;98798.63;8172980;28;20069;-71
2022/04/12 03:59:40;;;;;;;1.63;0.97;;;;;;;5.44;80.77;98794.34;8172674;28;20154;-71
2022/04/12 04:03:42;;;;;;;1.63;0.90;;;;;;;5.44;80.36;98794.34;8168063;28;20080;-71
2022/04/12 04:07:43;;;;;;;1.10;1.00;;;;;;;5.45;81.21;98796.06;8141936;28;20694;-72
2022/04/12 04:11:45;;;;;;;0.80;0.80;;;;;;;5.44;81.14;98791.78;8155099;28;20142;-71
2022/04/12 04:15:46;;;;;;;3.70;0.90;;;;;;;5.44;81.46;98798.63;8154278;28;20153;-71
2022/04/12 04:19:48;;;;;;;2.07;0.90;;;;;;;5.49;81.94;98806.38;8178504;28;20083;-72
2022/04/12 04:23:49;;;;;;;1.10;0.73;;;;;;;5.43;81.36;98800.34;8179051;28;20884;-71
2022/04/12 04:27:52;;;;;;;1.43;1.10;;;;;;;5.46;81.40;98800.34;8180205;28;20105;-71
2022/04/12 04:31:53;;;;;;;0.80;0.80;;;;;;;5.46;81.06;98808.09;8174154;28;20100;-71
2022/04/12 04:35:55;;;;;;;3.33;0.97;;;;;;;5.39;80.17;98808.03;8180038;28;21582;-71
2022/04/12 04:39:57;;;;;;;2.80;0.90;;;;;;;5.35;80.05;98819.16;8180666;28;20130;-71
2022/04/12 04:43:58;;;;;;;1.00;0.80;;;;;;;5.28;80.55;98819.97;8175107;28;20693;-71
2022/04/12 04:48:01;;;;;;;0.90;0.90;;;;;;;5.20;80.63;98819.88;8173107;28;20598;-71
2022/04/12 04:52:03;;;;;;;1.20;0.90;;;;;;;5.17;80.55;98817.28;8179012;28;20047;-71
2022/04/12 04:56:05;;;;;;;0.83;0.80;;;;;;;5.10;80.70;98813.81;8177166;28;20374;-71
2022/04/12 05:00:09;;;;;;;0.93;0.82;;;;;;;5.06;80.94;98809.50;8176760;28;20312;-71
2022/04/12 05:04:11;;;;;;;0.93;0.90;;;;;;;5.06;81.17;98806.09;8167621;28;20060;-71
2022/04/12 05:08:12;;;;;;;1.17;1.00;;;;;;;4.97;80.95;98800.84;8160612;28;20054;-71
2022/04/12 05:12:14;;;;;;;2.93;1.03;;;;;;;4.94;81.28;98806.81;8162299;28;20079;-71
2022/04/12 05:16:15;;;;;;;2.67;1.07;;;;;;;4.92;81.35;98807.66;8173222;28;20374;-71
2022/04/12 05:20:18;;;;;;;4.47;1.10;;;;;;;5.00;81.50;98816.28;8175861;28;20074;-71
2022/04/12 05:24:19;;;;;;;;;;;;;;;5.04;81.91;98800.06;8176659;28;21284;-71
2022/04/12 05:28:21;;;;;;;1.67;0.90;;;;;;;5.14;82.19;98807.84;8174360;28;21531;-71
2022/04/12 05:32:23;;;;;;;1.20;1.08;;;;;;;5.24;81.88;98820.81;8156564;28;20075;-71
2022/04/12 05:36:25;;;;;;;1.20;1.10;;;;;;;5.35;81.33;98826.88;8176954;28;20188;-71
2022/04/12 05:40:26;;;;;;;1.73;1.00;;;;;;;5.49;81.92;98829.56;8177290;28;20047;-71
2022/04/12 05:44:28;;;;;;;3.87;1.00;;;;;;;5.66;81.54;98838.25;8180991;28;20426;-71
2022/04/12 05:48:30;;;;;;;2.95;1.00;;;;;;;5.81;80.95;98838.34;8152603;28;20086;-71
2022/04/12 05:52:32;;;;;;;2.40;1.50;;;;;;;6.02;80.33;98848.78;8176705;28;20066;-73
2022/04/12 05:56:34;;;;;;;;;;;;;;;6.25;80.14;98855.75;8174612;28;20055;-72
2022/04/12 06:00:35;;;;;;;2.47;1.23;;;;;;;6.48;78.67;98861.88;8173003;28;19937;-72
2022/04/12 06:04:37;;;;;;;0.95;0.90;;;;;;;6.76;77.62;98856.78;8179407;28;20049;-72
2022/04/12 06:08:38;;;;;;;4.80;1.10;;;;;;;6.95;76.99;98856.81;8176239;28;20059;-73
2022/04/12 06:12:40;;;;;;;1.48;1.38;;;;;;;7.18;76.79;98853.38;8180451;28;20074;-73
2022/04/12 06:16:42;;;;;;;3.05;1.20;;;;;;;7.37;76.48;98854.28;8174201;28;20043;-73
2022/04/12 06:20:43;;;;;;;1.93;1.17;;;;;;;7.58;76.46;98855.13;8174096;28;20047;-73
2022/04/12 06:24:45;;;;;;;2.10;1.13;;;;;;;7.77;76.02;98861.13;8164378;28;20128;-73
2022/04/12 06:28:46;;;;;;;1.20;1.00;;;;;;;7.99;75.73;98863.66;8174581;28;20850;-73
2022/04/12 06:32:48;;;;;;;2.05;1.20;;;;;;;8.28;74.28;98860.97;8172807;28;20330;-73
2022/04/12 06:36:50;;;;;;;2.08;1.23;;;;;;;8.63;74.30;98861.72;8162204;28;20067;-73
2022/04/12 06:40:51;;;;;;;0.85;0.82;;;;;;;8.99;73.63;98847.69;8175000;28;20065;-73
2022/04/12 06:44:53;;;;;;;1.67;0.90;;;;;;;9.41;71.25;98844.78;8176888;28;20082;-73
2022/04/12 06:48:54;;;;;;;2.27;1.20;;;;;;;9.80;66.83;98843.53;8171481;28;20192;-74
2022/04/12 06:52:57;;;;;;;1.93;1.20;;;;;;;10.18;64.51;98848.31;8175116;28;20039;-73
2022/04/12 06:56:59;;;;;;;1.27;1.17;;;;;;;10.47;62.97;98850.59;8172798;28;20060;-73
2022/04/12 07:01:00;;;;;;;3.88;0.90;;;;;;;10.76;61.02;98845.84;8180535;28;20474;-73
2022/04/12 07:05:09;;;;;;;4.30;0.70;;;;;;;11.12;60.10;98841.84;8197816;28;20043;-72
2022/04/12 07:09:17;;;;;;;3.22;0.98;;;;;;;11.38;58.80;98845.81;8170059;28;20043;-72
2022/04/12 07:13:19;;;;;;;2.03;0.75;;;;;;;11.72;57.37;98846.94;8174756;28;20051;-72
2022/04/12 07:17:21;;;;;;;;;;;;;;;12.04;55.87;98861.16;8172850;28;20066;-72
2022/04/12 07:21:22;;;;;;;1.20;0.70;;;;;;;12.25;53.96;98846.84;8172494;28;20014;-73
2022/04/12 07:25:23;;;;;;;3.50;0.95;;;;;;;12.39;54.11;98842.25;8170173;28;20606;-72
2022/04/12 07:29:25;;;;;;;3.05;0.77;;;;;;;12.47;53.49;98840.31;8173939;28;20083;-72
2022/04/12 07:33:26;;;;;;;1.63;0.93;;;;;;;12.59;53.08;98842.66;8166197;28;20047;-72
2022/04/12 07:37:28;;;;;;;2.35;0.70;;;;;;;12.71;53.21;98834.56;8175770;28;20503;-72
2022/04/12 07:41:30;;;;;;;2.03;0.70;;;;;;;12.85;52.50;98825.59;8184162;28;20519;-73
2022/04/12 07:45:31;;;;;;;1.35;0.80;;;;;;;13.00;52.74;98831.31;8166361;28;20050;-72
2022/04/12 07:49:33;;;;;;;3.45;0.93;;;;;;;13.19;51.94;98838.75;8151087;28;20712;-73
2022/04/12 07:53:36;;;;;;;4.03;1.00;;;;;;;13.56;51.76;98833.47;8156237;28;20678;-73
2022/04/12 07:57:37;;;;;;;1.52;0.90;;;;;;;13.95;50.43;98833.31;8152202;28;20048;-73
2022/04/12 08:01:39;;;;;;;3.30;1.00;;;;;;;14.28;49.31;98834.16;8174693;28;20481;-72
2022/04/12 08:05:40;;;;;;;7.10;2.03;;;;;;;14.60;48.94;98831.50;8178983;28;20057;-73
2022/04/12 08:09:44;;;;;;;2.88;0.98;;;;;;;15.14;47.07;98838.56;8201232;28;20074;-73
2022/04/12 08:13:46;;;;;;;1.30;0.80;;;;;;;15.70;46.64;98831.50;8186938;28;20050;-73
2022/04/12 08:17:47;;;;;;;1.42;0.73;;;;;;;16.29;44.99;98846.00;8179338;28;20548;-73
2022/04/12 08:21:49;;;;;;;3.73;0.80;;;;;;;16.80;42.78;98848.47;8169647;28;20044;-73
2022/04/12 08:25:51;;;;;;;2.77;0.80;;;;;;;17.27;42.55;98840.53;8184144;28;20086;-74
2022/04/12 08:29:53;;;;;;;3.10;0.95;;;;;;;17.63;41.24;98848.66;8155987;28;21318;-74
2022/04/12 08:33:55;;;;;;;1.70;0.60;;;;;;;17.90;41.16;98851.06;8161028;28;20086;-74
2022/04/12 08:37:56;;;;;;;1.17;0.87;;;;;;;18.06;40.67;98846.84;8183853;28;20047;-73
2022/04/12 08:42:00;;;;;;;1.20;0.70;;;;;;;18.30;41.27;98847.53;8181654;28;20301;-73
2022/04/12 08:46:03;;;;;;;2.85;1.00;;;;;;;18.67;40.79;98836.25;8176878;28;20141;-73
2022/04/12 08:50:06;;;;;;;3.78;0.80;;;;;;;18.94;39.97;98828.84;8149535;28;20451;-74
2022/04/12 08:54:09;;;;;;;2.53;0.80;;;;;;;19.14;38.80;98847.16;8181793;28;20055;-73
2022/04/12 08:58:11;;;;;;;1.55;0.80;;;;;;;19.44;39.54;98828.19;8188422;28;20066;-72
2022/04/12 09:02:12;;;;;;;3.35;1.02;;;;;;;19.74;39.00;98839.00;8189240;28;20342;-72
2022/04/12 09:06:14;;;;;;;1.15;0.73;;;;;;;19.95;37.73;98840.56;8193519;28;20089;-73
2022/04/12 09:10:16;;;;;;;1.25;0.77;;;;;;;20.07;36.99;98834.63;8201685;28;20090;-73
2022/04/12 09:14:18;;;;;;;2.83;0.90;;;;;;;20.13;36.88;98831.69;8206925;28;20117;-73
2022/04/12 09:18:41;;;;;;;7.57;0.90;;;;;;;20.57;38.03;98817.09;8192427;28;20519;-73
2022/04/12 09:22:43;;;;;;;1.80;1.00;;;;;;;20.65;37.33;98818.41;8202908;28;20071;-73
2022/04/12 09:26:54;;;;;;;3.78;0.73;;;;;;;20.81;37.54;98813.97;8198289;28;20047;-74
2022/04/12 09:30:58;;;;;;;3.78;0.77;;;;;;;21.11;36.97;98807.91;8197274;28;20055;-73
2022/04/12 09:35:00;;;;;;;2.35;0.80;;;;;;;21.25;35.17;98807.16;8203571;28;20085;-74
2022/04/12 09:39:04;;;;;;;1.73;0.82;;;;;;;21.12;35.09;98805.19;8196801;28;20047;-74
2022/04/12 09:43:11;;;;;;;1.48;0.70;;;;;;;21.51;36.99;98803.00;8194866;28;20047;-73
2022/04/12 09:47:14;;;;;;;2.22;0.80;;;;;;;21.73;35.69;98795.53;8198093;28;20074;-74
2022/04/12 09:51:16;;;;;;;0.77;0.60;;;;;;;21.93;36.18;98797.00;8202674;28;20583;-73
2022/04/12 09:55:37;;;;;;;6.72;0.60;;;;;;;21.87;34.67;98798.19;8192622;28;20062;-73
2022/04/12 09:59:44;;;;;;;1.27;0.70;;;;;;;21.97;35.48;98795.84;8195160;28;20058;-72
2022/04/12 10:03:50;;;;;;;;;;;;;;;22.03;35.51;98795.47;8192276;28;20130;-73
2022/04/12 10:07:54;;;;;;;1.98;0.75;;;;;;;22.14;35.62;98793.06;8201169;28;20410;-72
2022/04/12 10:11:56;;;;;;;1.10;0.70;;;;;;;22.25;35.14;98787.94;8169129;28;20680;-72
2022/04/12 10:15:58;;;;;;;;;;;;;;;22.33;35.36;98784.00;8159666;28;20057;-72
2022/04/12 10:20:01;;;;;;;2.47;0.85;;;;;;;21.95;34.77;98798.59;8171230;28;19926;-72
2022/04/12 10:24:03;;;;;;;1.88;0.70;;;;;;;22.13;35.47;98785.22;8171866;28;20425;-71
2022/04/12 10:28:06;;;;;;;1.10;0.60;;;;;;;21.69;35.08;98801.91;8172268;28;20131;-72
2022/04/12 10:32:12;;;;;;;1.88;0.50;;;;;;;21.41;34.28;98793.00;8169076;28;20151;-72
2022/04/12 10:36:55;;;;;;;0.75;0.40;;;;;;;21.27;33.95;98789.44;8171710;28;20154;-72
2022/04/12 10:41:28;;;;;;;1.35;0.50;;;;;;;21.57;35.64;98768.31;8168862;28;20067;-72
2022/04/12 10:45:32;;;;;;;2.35;0.40;;;;;;;22.02;34.38;98778.75;8166536;28;20380;-72
2022/04/12 10:49:37;;;;;;;1.60;0.50;;;;;;;22.12;34.31;98768.50;8157618;28;20089;-72
2022/04/12 10:53:38;;;;;;;3.00;0.47;;;;;;;21.79;32.15;98773.16;8171330;28;20085;-72
2022/04/12 10:57:40;;;;;;;2.45;0.90;;;;;;;21.48;32.29;98764.41;8170475;28;20047;-71
2022/04/12 11:01:45;;;;;;;3.65;0.57;;;;;;;21.55;33.95;98752.56;8176237;28;20055;-72
2022/04/12 11:05:53;;;;;;;1.17;0.95;;;;;;;21.88;33.86;98747.00;8190708;28;20570;-72
2022/04/12 11:10:13;;;;;;;1.45;0.40;;;;;;;22.09;31.70;98747.56;8190962;28;20749;-71
2022/04/12 11:14:23;;;;;;;2.30;0.30;;;;;;;21.98;32.39;98745.53;8168290;28;20846;-72
2022/04/12 11:18:44;;;;;;;0.70;0.40;;;;;;;21.98;32.44;98739.38;8153133;28;20146;-71
2022/04/12 11:22:56;;;;;;;2.25;0.40;;;;;;;22.08;32.69;98740.53;8173811;28;20047;-71
2022/04/12 11:27:03;;;;;;;1.48;0.45;;;;;;;22.08;32.60;98734.41;8174954;28;20059;-71
2022/04/12 11:31:07;;;;;;;1.17;0.40;;;;;;;21.67;33.04;98737.75;8166672;28;20476;-72
2022/04/12 11:35:09;;;;;;;0.77;0.50;;;;;;;22.09;34.39;98730.84;8160513;28;20059;-72
2022/04/12 11:39:15;;;;;;;;;;;;;;;22.33;33.48;98725.81;8173219;28;20685;-72
2022/04/12 11:43:25;;;;;;;1.83;0.40;;;;;;;22.27;32.09;98735.84;8173309;28;19973;-72
2022/04/12 11:47:32;;;;;;;2.55;0.65;;;;;;;21.87;31.87;98724.16;8169234;28;20149;-72
2022/04/12 11:51:39;;;;;;;0.85;0.40;;;;;;;21.61;31.69;98725.75;8178397;28;20102;-71
2022/04/12 11:55:44;;;;;;;3.42;0.50;;;;;;;21.79;34.58;98742.31;8171155;28;20447;-72
2022/04/12 11:59:51;;;;;;;1.45;0.30;;;;;;;22.09;31.84;98729.03;8174110;28;20055;-71
2022/04/12 12:03:53;;;;;;;2.33;0.40;;;;;;;22.33;30.57;98726.66;8157163;28;20057;-72
2022/04/12 12:08:01;;;;;;;1.05;0.40;;;;;;;22.45;30.27;98723.25;8179624;28;20455;-72
2022/04/12 12:12:08;;;;;;;3.20;0.40;;;;;;;22.67;31.08;98727.16;8167025;28;20058;-72
2022/04/12 12:16:16;;;;;;;2.65;0.50;;;;;;;23.03;31.37;98718.66;8169303;28;20721;-72
2022/04/12 12:20:20;;;;;;;1.98;0.60;;;;;;;22.99;29.43;98720.66;8173079;28;20793;-72
2022/04/12 12:24:22;;;;;;;2.40;0.40;;;;;;;23.06;29.79;98715.78;8169025;28;20077;-72
2022/04/12 12:28:26;;;;;;;3.47;0.50;;;;;;;23.07;29.12;98726.28;8170257;28;20717;-71
2022/04/12 12:32:50;;;;;;;2.17;0.38;;;;;;;23.16;29.42;98725.69;8177312;28;20051;-71
2022/04/12 12:36:52;;;;;;;1.23;0.50;;;;;;;23.28;29.94;98718.69;8188740;28;20059;-71
2022/04/12 12:40:57;;;;;;;2.38;0.40;;;;;;;23.16;30.01;98723.03;8181853;28;20194;-72
2022/04/12 12:45:07;;;;;;;2.03;0.52;;;;;;;23.25;31.57;98729.50;8148018;28;20066;-72
2022/04/12 12:49:15;;;;;;;3.72;0.52;;;;;;;23.34;29.96;98728.91;8174288;28;20677;-71
2022/04/12 12:53:18;;;;;;;1.65;0.50;;;;;;;23.44;30.61;98710.56;8173146;28;20043;-71
2022/04/12 12:57:38;;;;;;;2.45;0.47;;;;;;;23.32;31.08;98706.94;8173261;28;20133;-72
2022/04/12 13:01:51;;;;;;;1.88;0.30;;;;;;;23.41;30.53;98718.72;8166265;28;20199;-71
2022/04/12 13:05:55;;;;;;;1.25;0.40;;;;;;;23.54;30.80;98708.16;8199477;28;20043;-71
2022/04/12 13:10:14;;;;;;;1.55;0.60;;;;;;;23.56;31.11;98700.94;8200288;28;20146;-72
2022/04/12 13:14:16;;;;;;;1.58;0.32;;;;;;;23.53;30.71;98702.00;8202380;28;20466;-72
2022/04/12 13:18:18;;;;;;;2.03;0.43;;;;;;;23.64;31.56;98699.47;8191787;28;20073;-72
2022/04/12 13:22:20;;;;;;;1.65;0.60;;;;;;;23.29;31.40;98701.00;8201725;28;20101;-72
2022/04/12 13:26:22;;;;;;;;;;;;;;;23.42;32.98;98700.06;8185114;28;20077;-72
2022/04/12 13:30:23;;;;;;;0.67;0.40;;;;;;;23.64;32.92;98696.81;8200694;28;20004;-72
2022/04/12 13:34:25;;;;;;;1.38;0.60;;;;;;;23.70;31.12;98688.47;8202768;28;20053;-71
2022/04/12 13:38:27;;;;;;;4.40;0.50;;;;;;;23.83;32.33;98691.09;8186450;28;20436;-72
2022/04/12 13:42:29;;;;;;;3.33;0.30;;;;;;;24.14;30.94;98691.59;8199190;28;20047;-71
2022/04/12 13:46:30;;;;;;;1.90;0.50;;;;;;;24.17;30.51;98683.41;8197382;28;20502;-71
2022/04/12 13:50:32;;;;;;;2.33;0.43;;;;;;;24.19;31.25;98682.34;8185060;28;20141;-72
2022/04/12 13:54:34;;;;;;;2.05;0.52;;;;;;;24.37;31.69;98669.59;8202449;28;20039;-71
2022/04/12 13:58:35;;;;;;;;;;;;;;;24.70;31.18;98676.91;8204004;28;20082;-72
2022/04/12 14:02:37;;;;;;;1.60;0.50;;;;;;;24.49;29.88;98675.84;8181081;28;19927;-72
2022/04/12 14:06:42;;;;;;;0.50;0.40;;;;;;;24.43;29.97;98661.22;8181650;28;20043;-72
2022/04/12 14:10:46;;;;;;;1.05;0.47;;;;;;;24.35;30.00;98659.09;8194557;28;20043;-72
2022/04/12 14:14:47;;;;;;;0.95;0.50;;;;;;;24.40;30.80;98645.47;8201372;28;20043;-71
2022/04/12 14:18:49;;;;;;;2.08;0.70;;;;;;;24.49;30.67;98655.44;8181028;28;20110;-72
2022/04/12 14:22:52;;;;;;;3.08;0.60;;;;;;;24.36;31.03;98644.88;8184002;28;20035;-71
2022/04/12 14:26:53;;;;;;;2.78;0.60;;;;;;;24.05;30.96;98651.50;8203181;28;20083;-71
2022/04/12 14:30:55;;;;;;;2.90;0.55;;;;;;;23.76;30.81;98653.56;8198635;28;20082;-71
2022/04/12 14:34:57;;;;;;;2.50;0.73;;;;;;;23.50;30.61;98643.88;8203546;28;20090;-71
2022/04/12 14:38:58;;;;;;;6.38;0.77;;;;;;;23.50;32.11;98654.47;8203389;28;20055;-71
2022/04/12 14:43:00;;;;;;;2.58;0.50;;;;;;;23.69;31.65;98651.44;8199960;28;20078;-71
2022/04/12 14:47:02;;;;;;;2.90;0.40;;;;;;;23.80;30.86;98651.53;8196581;28;20065;-71
2022/04/12 14:51:03;;;;;;;4.55;0.63;;;;;;;24.02;31.49;98656.19;8189022;28;20038;-71
2022/04/12 14:55:05;;;;;;;1.50;0.40;;;;;;;24.10;29.92;98641.41;8173324;28;20047;-71
2022/04/12 14:59:07;;;;;;;;;;;;;;;23.91;29.56;98649.00;8197507;28;20423;-72
2022/04/12 15:03:08;;;;;;;1.17;0.40;;;;;;;23.82;29.87;98654.94;8190206;28;19926;-72
2022/04/12 15:07:10;;;;;;;1.38;0.40;;;;;;;23.69;29.71;98657.59;8175987;28;20990;-72
2022/04/12 15:11:11;;;;;;;1.17;0.40;;;;;;;23.65;29.81;98656.13;8197748;28;20126;-72
2022/04/12 15:15:13;;;;;;;2.08;0.50;;;;;;;23.65;29.02;98652.63;8175911;28;20064;-71
2022/04/12 15:19:15;;;;;;;3.47;0.40;;;;;;;23.81;29.59;98658.53;8184580;28;20051;-71
2022/04/12 15:23:17;;;;;;;1.27;0.40;;;;;;;23.97;30.30;98663.63;8195159;28;20086;-71
2022/04/12 15:27:18;;;;;;;0.68;0.35;;;;;;;23.99;29.47;98657.25;8182771;28;20038;-72
2022/04/12 15:31:19;;;;;;;2.88;0.45;;;;;;;24.01;29.65;98665.09;8197039;28;20059;-71
2022/04/12 15:35:21;;;;;;;3.33;0.50;;;;;;;24.01;30.41;98662.44;8158606;29;20142;-71
2022/04/12 15:39:25;;;;;;;4.95;1.10;;;;;;;24.08;29.43;98666.38;8166191;29;20125;-72
2022/04/12 15:43:27;;;;;;;0.63;0.40;;;;;;;24.06;29.47;98662.97;8149730;29;20078;-71
2022/04/12 15:47:28;;;;;;;1.08;0.47;;;;;;;24.30;29.70;98676.31;8166245;29;20051;-71
2022/04/12 15:51:30;;;;;;;2.92;0.47;;;;;;;24.40;30.05;98674.69;8165206;29;20054;-71
2022/04/12 15:55:31;;;;;;;1.88;0.40;;;;;;;24.25;28.79;98681.09;8163075;29;20047;-72
2022/04/12 15:59:33;;;;;;;0.47;0.30;;;;;;;24.14;27.87;98678.34;8146693;29;20054;-71
2022/04/12 16:03:34;;;;;;;1.58;0.45;;;;;;;23.90;28.65;98678.28;8153269;29;20035;-72
2022/04/12 16:07:36;;;;;;;1.50;0.45;;;;;;;23.92;28.57;98686.97;8142030;29;20152;-71
2022/04/12 16:11:38;;;;;;;1.38;0.30;;;;;;;23.92;29.19;98686.97;8159337;28;20054;-71
2022/04/12 16:15:42;;;;;;;4.28;0.40;;;;;;;23.67;29.14;98690.47;8140933;29;20044;-71
2022/04/12 16:19:44;;;;;;;0.95;0.40;;;;;;;23.61;28.50;98696.19;8160588;29;20048;-71
2022/04/12 16:23:45;;;;;;;2.88;0.43;;;;;;;23.18;27.43;98689.34;8160330;29;20051;-72
2022/04/12 16:27:54;;;;;;;2.85;0.50;;;;;;;23.09;27.59;98697.88;8164280;29;20147;-72
2022/04/12 16:31:56;;;;;;;1.75;0.50;;;;;;;22.89;27.19;98688.63;8140693;29;20147;-72
2022/04/12 16:35:57;;;;;;;1.10;0.40;;;;;;;22.74;27.77;98686.94;8172948;28;20765;-72
2022/04/12 16:39:59;;;;;;;1.27;0.40;;;;;;;22.47;26.82;98701.97;8190902;28;20128;-72
2022/04/12 16:44:00;;;;;;;3.78;0.88;;;;;;;22.20;27.83;98694.81;8175862;28;20039;-71
2022/04/12 16:48:01;;;;;;;2.33;0.60;;;;;;;22.02;28.77;98688.84;8199695;28;20085;-71
2022/04/12 16:52:03;;;;;;;2.17;0.50;;;;;;;21.80;28.50;98687.66;8184432;28;20411;-71
2022/04/12 16:56:05;;;;;;;;;;;;;;;21.63;29.36;98693.97;8197994;28;20651;-71
2022/04/12 17:00:08;;;;;;;1.80;0.30;;;;;;;21.42;28.38;98688.19;8190104;28;20429;-71
2022/04/12 17:04:10;;;;;;;1.23;0.43;;;;;;;21.22;29.33;98681.41;8185281;28;20067;-71
2022/04/12 17:08:11;;;;;;;1.23;0.50;;;;;;;21.06;28.40;98684.09;8192113;28;20100;-71
2022/04/12 17:12:13;;;;;;;3.08;0.40;;;;;;;20.93;29.31;98695.44;8179431;28;20070;-71
2022/04/12 17:16:14;;;;;;;1.15;0.30;;;;;;;20.81;29.48;98697.00;8193955;28;20074;-71
2022/04/12 17:20:16;;;;;;;4.28;0.40;;;;;;;20.67;29.63;98695.16;8193419;28;20368;-71
2022/04/12 17:24:18;;;;;;;1.70;0.25;;;;;;;20.50;29.32;98705.81;8180294;28;20043;-71
2022/04/12 17:28:19;;;;;;;5.07;1.05;;;;;;;20.40;29.79;98708.06;8203212;28;20083;-71
2022/04/12 17:32:21;;;;;;;1.80;0.50;;;;;;;20.28;29.63;98714.00;8203477;28;20057;-72
2022/04/12 17:36:23;;;;;;;0.90;0.47;;;;;;;20.15;31.51;98719.13;8199042;28;20094;-71
2022/04/12 17:40:24;;;;;;;3.50;0.65;;;;;;;19.97;33.10;98713.97;8191330;28;20046;-71
2022/04/12 17:44:25;;;;;;;1.55;0.30;;;;;;;19.78;34.44;98722.00;8191729;28;20047;-71
2022/04/12 17:48:27;;;;;;;0.65;0.43;;;;;;;19.55;34.36;98715.28;8188576;28;20485;-71
2022/04/12 17:52:37;;;;;;;1.13;0.40;;;;;;;19.47;32.72;98722.69;8173462;28;20061;-71
2022/04/12 17:56:39;;;;;;;6.93;0.60;;;;;;;19.38;33.70;98725.78;8182498;28;20338;-71
2022/04/12 18:00:40;;;;;;;1.25;0.50;;;;;;;19.13;37.84;98732.31;8187283;28;20135;-71
2022/04/12 18:04:43;;;;;;;5.70;0.40;;;;;;;18.90;39.47;98732.59;8183174;28;20705;-72
2022/04/12 18:08:44;;;;;;;3.85;0.50;;;;;;;18.67;40.23;98733.69;8184502;28;20089;-71
2022/04/12 18:12:46;;;;;;;3.92;0.40;;;;;;;18.47;40.37;98736.38;8153560;28;20471;-72
2022/04/12 18:16:47;;;;;;;5.00;0.60;;;;;;;18.23;41.73;98739.22;8182702;28;20055;-71
2022/04/12 18:20:49;;;;;;;3.63;0.60;;;;;;;17.99;42.43;98748.22;8184676;28;20526;-73
2022/04/12 18:24:51;;;;;;;9.43;0.80;;;;;;;17.83;42.74;98753.31;8186227;28;20103;-71
2022/04/12 18:28:52;;;;;;;5.97;0.40;;;;;;;17.69;44.03;98755.66;8169987;28;20075;-71
2022/04/12 18:32:54;;;;;;;4.17;0.70;;;;;;;17.53;43.48;98752.81;8188243;28;20174;-72
2022/04/12 18:36:56;;;;;;;3.85;0.40;;;;;;;17.39;43.96;98766.50;8190990;28;20335;-71
2022/04/12 18:40:58;;;;;;;3.67;0.50;;;;;;;17.27;44.01;98763.56;8175638;28;20057;-72
2022/04/12 18:45:00;;;;;;;1.63;0.50;;;;;;;17.13;45.72;98772.84;8191747;28;20043;-72
2022/04/12 18:49:07;;;;;;;4.90;0.85;;;;;;;17.04;45.54;98772.38;8202239;28;20074;-72
2022/04/12 18:53:09;;;;;;;3.92;0.50;;;;;;;16.91;45.44;98772.88;8196908;28;20053;-72
2022/04/12 18:57:12;;;;;;;6.35;0.80;;;;;;;16.78;46.51;98779.50;8197376;28;20186;-72
2022/04/12 19:01:13;;;;;;;4.13;1.10;;;;;;;16.67;46.75;98783.47;8185823;28;20046;-71
2022/04/12 19:05:15;;;;;;;5.82;0.80;;;;;;;16.55;48.40;98785.63;8188598;28;20043;-72
2022/04/12 19:09:17;;;;;;;3.60;0.60;;;;;;;16.42;49.55;98791.38;8191103;28;20130;-71
2022/04/12 19:13:18;;;;;;;3.97;0.70;;;;;;;16.24;49.82;98793.78;8171742;28;20047;-71
2022/04/12 19:17:20;;;;;;;6.97;0.50;;;;;;;16.09;50.08;98802.19;8185432;28;21482;-71